sensor_id;sensor_type;location;lat;lon;timestamp;pressure;altitude;pressure_sealevel;temperature;humidity
61128;BME280;47013;42.664;23.242;2023-02-05T00:02:07;94078.47;;;-2.66;84.58
61128;BME280;47013;42.664;23.242;2023-02-05T00:04:33;94085.06;;;-2.72;84.45
61128;BME280;47013;42.664;23.242;2023-02-05T00:06:58;94081.47;;;-2.76;82.97
61128;BME280;47013;42.664;23.242;2023-02-05T00:09:24;94076.00;;;-2.71;84.61
61128;BME280;47013;42.664;23.242;2023-02-05T00:11:49;94087.34;;;-2.62;82.78
61128;BME280;47013;42.664;23.242;2023-02-05T00:14:14;94082.88;;;-2.79;83.67
61128;BME280;47013;42.664;23.242;2023-02-05T00:16:40;94083.84;;;-2.83;82.81
61128;BME280;47013;42.664;23.242;2023-02-05T00:19:05;94079.34;;;-2.91;82.81
61128;BME280;47013;42.664;23.242;2023-02-05T00:21:31;94082.75;;;-2.91;82.33
61128;BME280;47013;42.664;23.242;2023-02-05T00:23:56;94072.94;;;-2.90;81.93
61128;BME280;47013;42.664;23.242;2023-02-05T00:26:21;94079.53;;;-2.97;80.92
61128;BME280;47013;42.664;23.242;2023-02-05T00:28:47;94082.63;;;-2.94;81.36
61128;BME280;47013;42.664;23.242;2023-02-05T00:31:16;94077.19;;;-2.98;81.03
61128;BME280;47013;42.664;23.242;2023-02-05T00:33:42;94087.94;;;-3.03;81.22
61128;BME280;47013;42.664;23.242;2023-02-05T00:36:08;94086.38;;;-3.04;80.56
61128;BME280;47013;42.664;23.242;2023-02-05T00:38:34;94097.13;;;-3.01;80.66
61128;BME280;47013;42.664;23.242;2023-02-05T00:41:00;94087.34;;;-3.09;79.32
61128;BME280;47013;42.664;23.242;2023-02-05T00:43:26;94086.38;;;-3.04;79.05
61128;BME280;47013;42.664;23.242;2023-02-05T00:45:51;94102.44;;;-3.01;78.54
61128;BME280;47013;42.664;23.242;2023-02-05T00:48:17;94092.81;;;-3.14;77.68
61128;BME280;47013;42.664;23.242;2023-02-05T00:50:42;94097.00;;;-3.13;78.71
61128;BME280;47013;42.664;23.242;2023-02-05T00:53:07;94101.06;;;-3.07;78.32
61128;BME280;47013;42.664;23.242;2023-02-05T00:55:33;94109.97;;;-3.20;77.97
61128;BME280;47013;42.664;23.242;2023-02-05T00:57:58;94103.41;;;-3.14;78.68
61128;BME280;47013;42.664;23.242;2023-02-05T01:00:26;94097.81;;;-3.12;79.08
61128;BME280;47013;42.664;23.242;2023-02-05T01:02:52;94100.09;;;-3.02;78.06
61128;BME280;47013;42.664;23.242;2023-02-05T01:05:18;94100.56;;;-3.00;78.15
61128;BME280;47013;42.664;23.242;2023-02-05T01:07:43;94108.88;;;-3.10;77.96
61128;BME280;47013;42.664;23.242;2023-02-05T01:10:08;94102.34;;;-3.21;77.90
61128;BME280;47013;42.664;23.242;2023-02-05T01:12:34;94108.56;;;-3.26;78.86
61128;BME280;47013;42.664;23.242;2023-02-05T01:15:00;94100.66;;;-3.35;78.42
61128;BME280;47013;42.664;23.242;2023-02-05T01:17:25;94109.97;;;-3.29;79.29
61128;BME280;47013;42.664;23.242;2023-02-05T01:19:51;94105.47;;;-3.28;79.52
61128;BME280;47013;42.664;23.242;2023-02-05T01:22:16;94102.97;;;-3.33;78.00
61128;BME280;47013;42.664;23.242;2023-02-05T01:24:42;94108.28;;;-3.42;79.66
61128;BME280;47013;42.664;23.242;2023-02-05T01:27:07;94112.66;;;-3.37;80.42
61128;BME280;47013;42.664;23.242;2023-02-05T01:29:32;94107.81;;;-3.52;81.19
61128;BME280;47013;42.664;23.242;2023-02-05T01:31:58;94109.06;;;-3.41;80.80
61128;BME280;47013;42.664;23.242;2023-02-05T01:34:23;94111.38;;;-3.40;81.03
61128;BME280;47013;42.664;23.242;2023-02-05T01:36:49;94109.50;;;-3.39;81.46
61128;BME280;47013;42.664;23.242;2023-02-05T01:39:14;94108.13;;;-3.37;81.57
61128;BME280;47013;42.664;23.242;2023-02-05T01:41:41;94117.00;;;-3.33;82.58
61128;BME280;47013;42.664;23.242;2023-02-05T01:44:12;94119.19;;;-3.35;83.11
61128;BME280;47013;42.664;23.242;2023-02-05T01:46:41;94116.09;;;-3.37;82.79
61128;BME280;47013;42.664;23.242;2023-02-05T01:49:11;94123.56;;;-3.30;83.51
61128;BME280;47013;42.664;23.242;2023-02-05T01:51:37;94123.72;;;-3.44;83.88
61128;BME280;47013;42.664;23.242;2023-02-05T01:54:03;94118.56;;;-3.40;84.88
61128;BME280;47013;42.664;23.242;2023-02-05T01:56:42;94128.41;;;-3.32;83.99
61128;BME280;47013;42.664;23.242;2023-02-05T01:59:13;94127.63;;;-3.33;83.98
61128;BME280;47013;42.664;23.242;2023-02-05T02:01:40;94122.47;;;-3.46;83.87
61128;BME280;47013;42.664;23.242;2023-02-05T02:04:07;94134.78;;;-3.33;84.23
61128;BME280;47013;42.664;23.242;2023-02-05T02:06:34;94136.03;;;-3.31;83.07
61128;BME280;47013;42.664;23.242;2023-02-05T02:09:01;94139.63;;;-3.18;83.33
61128;BME280;47013;42.664;23.242;2023-02-05T02:11:29;94148.81;;;-3.07;82.98
61128;BME280;47013;42.664;23.242;2023-02-05T02:13:58;94145.69;;;-3.09;81.67
61128;BME280;47013;42.664;23.242;2023-02-05T02:16:26;94140.72;;;-3.19;79.79
61128;BME280;47013;42.664;23.242;2023-02-05T02:18:53;94148.97;;;-3.29;79.92
61128;BME280;47013;42.664;23.242;2023-02-05T02:21:40;94152.56;;;-3.16;80.21
61128;BME280;47013;42.664;23.242;2023-02-05T02:26:47;94149.28;;;-3.22;77.94
61128;BME280;47013;42.664;23.242;2023-02-05T02:29:27;94157.56;;;-3.23;77.67
61128;BME280;47013;42.664;23.242;2023-02-05T02:32:02;94133.56;;;-3.36;77.17
61128;BME280;47013;42.664;23.242;2023-02-05T02:34:46;94146.19;;;-3.33;77.37
61128;BME280;47013;42.664;23.242;2023-02-05T02:37:24;94144.44;;;-3.29;78.71
61128;BME280;47013;42.664;23.242;2023-02-05T02:43:08;94152.09;;;-3.18;78.62
61128;BME280;47013;42.664;23.242;2023-02-05T02:45:36;94161.16;;;-3.37;78.00
61128;BME280;47013;42.664;23.242;2023-02-05T02:48:06;94154.28;;;-3.46;77.78
61128;BME280;47013;42.664;23.242;2023-02-05T02:50:36;94162.69;;;-3.44;78.43
61128;BME280;47013;42.664;23.242;2023-02-05T02:53:11;94162.56;;;-3.48;78.96
61128;BME280;47013;42.664;23.242;2023-02-05T02:55:40;94162.88;;;-3.49;80.31
61128;BME280;47013;42.664;23.242;2023-02-05T02:58:10;94162.53;;;-3.57;79.43
61128;BME280;47013;42.664;23.242;2023-02-05T03:00:38;94162.69;;;-3.62;80.29
61128;BME280;47013;42.664;23.242;2023-02-05T03:03:07;94160.81;;;-3.70;80.89
61128;BME280;47013;42.664;23.242;2023-02-05T03:05:35;94160.97;;;-3.75;81.10
61128;BME280;47013;42.664;23.242;2023-02-05T03:08:14;94163.44;;;-3.78;81.09
61128;BME280;47013;42.664;23.242;2023-02-05T03:10:47;94168.09;;;-3.84;81.58
61128;BME280;47013;42.664;23.242;2023-02-05T03:13:14;94167.81;;;-3.82;81.63
61128;BME280;47013;42.664;23.242;2023-02-05T03:15:42;94164.53;;;-3.79;82.15
61128;BME280;47013;42.664;23.242;2023-02-05T03:18:08;94172.97;;;-3.77;82.75
61128;BME280;47013;42.664;23.242;2023-02-05T03:20:38;94176.38;;;-3.86;82.36
61128;BME280;47013;42.664;23.242;2023-02-05T03:23:05;94175.91;;;-3.79;82.89
61128;BME280;47013;42.664;23.242;2023-02-05T03:25:30;94170.59;;;-3.88;81.38
61128;BME280;47013;42.664;23.242;2023-02-05T03:27:56;94177.00;;;-3.89;81.69
61128;BME280;47013;42.664;23.242;2023-02-05T03:30:27;94162.78;;;-4.01;82.25
61128;BME280;47013;42.664;23.242;2023-02-05T03:33:06;94180.16;;;-4.18;82.48
61128;BME280;47013;42.664;23.242;2023-02-05T03:35:57;94170.84;;;-4.15;84.26
61128;BME280;47013;42.664;23.242;2023-02-05T03:44:04;94189.31;;;-3.84;83.25
61128;BME280;47013;42.664;23.242;2023-02-05T03:49:23;94186.06;;;-3.72;82.42
61128;BME280;47013;42.664;23.242;2023-02-05T03:51:58;94173.75;;;-3.77;81.61
61128;BME280;47013;42.664;23.242;2023-02-05T03:59:44;94176.25;;;-3.63;81.31
61128;BME280;47013;42.664;23.242;2023-02-05T04:02:12;94192.28;;;-3.68;80.73
61128;BME280;47013;42.664;23.242;2023-02-05T04:04:37;94198.38;;;-3.76;79.63
61128;BME280;47013;42.664;23.242;2023-02-05T04:07:03;94190.66;;;-3.95;81.24
61128;BME280;47013;42.664;23.242;2023-02-05T04:09:29;94196.44;;;-4.02;82.63
61128;BME280;47013;42.664;23.242;2023-02-05T04:11:54;94197.81;;;-4.04;81.31
61128;BME280;47013;42.664;23.242;2023-02-05T04:14:20;94192.94;;;-4.20;81.44
61128;BME280;47013;42.664;23.242;2023-02-05T04:16:45;94195.72;;;-4.25;82.06
61128;BME280;47013;42.664;23.242;2023-02-05T04:19:10;94210.03;;;-4.26;82.02
61128;BME280;47013;42.664;23.242;2023-02-05T04:21:36;94201.94;;;-4.29;82.05
61128;BME280;47013;42.664;23.242;2023-02-05T04:24:01;94205.84;;;-4.27;81.38
61128;BME280;47013;42.664;23.242;2023-02-05T04:26:27;94210.22;;;-4.22;82.43
61128;BME280;47013;42.664;23.242;2023-02-05T04:28:52;94204.28;;;-4.19;83.42
61128;BME280;47013;42.664;23.242;2023-02-05T04:31:17;94209.00;;;-4.16;82.40
61128;BME280;47013;42.664;23.242;2023-02-05T04:33:43;94201.53;;;-4.14;82.34
61128;BME280;47013;42.664;23.242;2023-02-05T04:36:08;94211.16;;;-4.18;82.94
61128;BME280;47013;42.664;23.242;2023-02-05T04:38:34;94205.84;;;-4.18;82.01
61128;BME280;47013;42.664;23.242;2023-02-05T04:40:59;94214.88;;;-4.28;80.98
61128;BME280;47013;42.664;23.242;2023-02-05T04:43:25;94211.59;;;-4.25;82.93
61128;BME280;47013;42.664;23.242;2023-02-05T04:45:50;94221.06;;;-4.32;83.63
61128;BME280;47013;42.664;23.242;2023-02-05T04:48:16;94222.53;;;-4.18;84.15
61128;BME280;47013;42.664;23.242;2023-02-05T04:50:41;94222.72;;;-4.14;82.99
61128;BME280;47013;42.664;23.242;2023-02-05T04:53:07;94215.88;;;-4.06;82.73
61128;BME280;47013;42.664;23.242;2023-02-05T04:55:32;94228.16;;;-4.10;83.01
61128;BME280;47013;42.664;23.242;2023-02-05T04:57:58;94223.28;;;-4.26;83.73
61128;BME280;47013;42.664;23.242;2023-02-05T05:00:24;94221.56;;;-4.22;83.62
61128;BME280;47013;42.664;23.242;2023-02-05T05:02:50;94229.09;;;-4.15;84.35
61128;BME280;47013;42.664;23.242;2023-02-05T05:05:16;94228.47;;;-4.43;84.18
61128;BME280;47013;42.664;23.242;2023-02-05T05:07:41;94236.34;;;-4.29;85.02
61128;BME280;47013;42.664;23.242;2023-02-05T05:10:07;94237.16;;;-4.20;84.10
61128;BME280;47013;42.664;23.242;2023-02-05T05:12:34;94243.69;;;-4.18;84.41
61128;BME280;47013;42.664;23.242;2023-02-05T05:14:59;94233.94;;;-4.08;84.10
61128;BME280;47013;42.664;23.242;2023-02-05T05:17:25;94240.94;;;-4.12;83.65
61128;BME280;47013;42.664;23.242;2023-02-05T05:19:50;94233.97;;;-4.31;84.52
61128;BME280;47013;42.664;23.242;2023-02-05T05:22:16;94253.44;;;-4.35;85.26
61128;BME280;47013;42.664;23.242;2023-02-05T05:24:41;94242.22;;;-4.41;85.77
61128;BME280;47013;42.664;23.242;2023-02-05T05:27:07;94244.66;;;-4.45;86.83
61128;BME280;47013;42.664;23.242;2023-02-05T05:29:32;94254.22;;;-4.35;86.85
61128;BME280;47013;42.664;23.242;2023-02-05T05:31:57;94263.50;;;-4.46;85.50
61128;BME280;47013;42.664;23.242;2023-02-05T05:34:23;94255.09;;;-4.70;86.73
61128;BME280;47013;42.664;23.242;2023-02-05T05:36:48;94262.19;;;-4.57;88.30
61128;BME280;47013;42.664;23.242;2023-02-05T05:39:14;94266.13;;;-4.46;87.96
61128;BME280;47013;42.664;23.242;2023-02-05T05:41:58;94266.91;;;-4.46;86.99
61128;BME280;47013;42.664;23.242;2023-02-05T05:44:42;94279.59;;;-4.34;87.77
61128;BME280;47013;42.664;23.242;2023-02-05T05:47:08;94276.84;;;-4.29;87.30
61128;BME280;47013;42.664;23.242;2023-02-05T05:49:33;94283.03;;;-4.33;86.26
61128;BME280;47013;42.664;23.242;2023-02-05T05:51:59;94274.91;;;-4.37;87.42
61128;BME280;47013;42.664;23.242;2023-02-05T05:54:24;94284.16;;;-4.26;87.58
61128;BME280;47013;42.664;23.242;2023-02-05T05:56:49;94279.03;;;-4.22;88.47
61128;BME280;47013;42.664;23.242;2023-02-05T05:59:15;94295.47;;;-4.34;86.68
61128;BME280;47013;42.664;23.242;2023-02-05T06:01:40;94294.88;;;-4.31;87.36
61128;BME280;47013;42.664;23.242;2023-02-05T06:04:06;94296.44;;;-4.30;86.97
61128;BME280;47013;42.664;23.242;2023-02-05T06:06:31;94293.75;;;-3.68;94.30
61128;BME280;47013;42.664;23.242;2023-02-05T06:08:57;94298.91;;;-3.71;100.00
61128;BME280;47013;42.664;23.242;2023-02-05T06:11:22;94295.72;;;-3.91;89.36
61128;BME280;47013;42.664;23.242;2023-02-05T06:13:47;94303.66;;;-3.91;87.68
61128;BME280;47013;42.664;23.242;2023-02-05T06:16:13;94297.75;;;-3.88;87.27
61128;BME280;47013;42.664;23.242;2023-02-05T06:18:38;94312.09;;;-3.89;86.57
61128;BME280;47013;42.664;23.242;2023-02-05T06:21:04;94310.53;;;-3.90;85.96
61128;BME280;47013;42.664;23.242;2023-02-05T06:23:31;94328.72;;;-3.97;85.70
61128;BME280;47013;42.664;23.242;2023-02-05T06:25:57;94324.34;;;-4.01;85.48
61128;BME280;47013;42.664;23.242;2023-02-05T06:28:23;94331.69;;;-4.21;85.54
61128;BME280;47013;42.664;23.242;2023-02-05T06:30:48;94325.00;;;-4.18;85.99
61128;BME280;47013;42.664;23.242;2023-02-05T06:33:13;94336.19;;;-4.21;86.38
61128;BME280;47013;42.664;23.242;2023-02-05T06:35:39;94344.03;;;-4.16;86.46
61128;BME280;47013;42.664;23.242;2023-02-05T06:38:05;94346.84;;;-4.12;86.82
61128;BME280;47013;42.664;23.242;2023-02-05T06:40:31;94337.16;;;-4.17;86.24
61128;BME280;47013;42.664;23.242;2023-02-05T06:42:56;94344.81;;;-4.16;86.40
61128;BME280;47013;42.664;23.242;2023-02-05T06:45:21;94342.28;;;-4.21;86.75
61128;BME280;47013;42.664;23.242;2023-02-05T06:47:47;94341.97;;;-4.19;86.92
61128;BME280;47013;42.664;23.242;2023-02-05T06:50:13;94350.22;;;-4.21;86.17
61128;BME280;47013;42.664;23.242;2023-02-05T06:52:38;94358.00;;;-4.24;85.78
61128;BME280;47013;42.664;23.242;2023-02-05T06:55:04;94360.69;;;-4.38;85.78
61128;BME280;47013;42.664;23.242;2023-02-05T06:57:29;94367.91;;;-4.52;87.00
61128;BME280;47013;42.664;23.242;2023-02-05T06:59:56;94362.19;;;-4.46;87.64
61128;BME280;47013;42.664;23.242;2023-02-05T07:02:22;94363.53;;;-4.34;93.18
61128;BME280;47013;42.664;23.242;2023-02-05T07:04:47;94356.31;;;-4.42;87.86
61128;BME280;47013;42.664;23.242;2023-02-05T07:07:13;94359.81;;;-4.56;86.97
61128;BME280;47013;42.664;23.242;2023-02-05T07:09:40;94368.09;;;-4.49;88.05
61128;BME280;47013;42.664;23.242;2023-02-05T07:12:06;94370.88;;;-4.54;88.44
61128;BME280;47013;42.664;23.242;2023-02-05T07:14:36;94362.72;;;-4.57;88.21
61128;BME280;47013;42.664;23.242;2023-02-05T07:17:01;94372.59;;;-4.49;87.76
61128;BME280;47013;42.664;23.242;2023-02-05T07:19:27;94372.44;;;-4.53;88.62
61128;BME280;47013;42.664;23.242;2023-02-05T07:21:52;94371.50;;;-4.48;88.09
61128;BME280;47013;42.664;23.242;2023-02-05T07:24:17;94374.78;;;-4.51;88.40
61128;BME280;47013;42.664;23.242;2023-02-05T07:26:43;94382.59;;;-4.46;88.71
61128;BME280;47013;42.664;23.242;2023-02-05T07:29:09;94381.81;;;-4.47;87.79
61128;BME280;47013;42.664;23.242;2023-02-05T07:31:35;94377.34;;;-4.60;88.87
61128;BME280;47013;42.664;23.242;2023-02-05T07:34:00;94389.88;;;-4.52;89.05
61128;BME280;47013;42.664;23.242;2023-02-05T07:36:25;94388.19;;;-4.48;89.65
61128;BME280;47013;42.664;23.242;2023-02-05T07:38:51;94380.22;;;-4.48;89.69
61128;BME280;47013;42.664;23.242;2023-02-05T07:41:16;94386.69;;;-4.40;89.51
61128;BME280;47013;42.664;23.242;2023-02-05T07:43:42;94385.31;;;-4.37;89.70
61128;BME280;47013;42.664;23.242;2023-02-05T07:46:13;94394.69;;;-4.31;89.50
61128;BME280;47013;42.664;23.242;2023-02-05T07:48:39;94390.38;;;-4.27;89.35
61128;BME280;47013;42.664;23.242;2023-02-05T07:51:05;94404.56;;;-4.23;89.85
61128;BME280;47013;42.664;23.242;2023-02-05T07:53:30;94404.81;;;-4.11;89.59
61128;BME280;47013;42.664;23.242;2023-02-05T07:55:56;94408.41;;;-4.07;88.85
61128;BME280;47013;42.664;23.242;2023-02-05T07:58:22;94411.44;;;-4.00;87.78
61128;BME280;47013;42.664;23.242;2023-02-05T08:00:47;94414.25;;;-3.96;88.33
61128;BME280;47013;42.664;23.242;2023-02-05T08:03:13;94415.41;;;-3.89;88.26
61128;BME280;47013;42.664;23.242;2023-02-05T08:05:38;94419.41;;;-3.91;87.92
61128;BME280;47013;42.664;23.242;2023-02-05T08:08:04;94417.06;;;-3.93;88.83
61128;BME280;47013;42.664;23.242;2023-02-05T08:10:33;94416.50;;;-3.81;88.60
61128;BME280;47013;42.664;23.242;2023-02-05T08:12:58;94425.72;;;-3.78;87.81
61128;BME280;47013;42.664;23.242;2023-02-05T08:15:23;94429.09;;;-3.64;87.52
61128;BME280;47013;42.664;23.242;2023-02-05T08:17:50;94427.25;;;-3.55;88.15
61128;BME280;47013;42.664;23.242;2023-02-05T08:20:16;94432.25;;;-3.53;87.16
61128;BME280;47013;42.664;23.242;2023-02-05T08:22:42;94434.94;;;-3.45;86.81
61128;BME280;47013;42.664;23.242;2023-02-05T08:25:10;94433.09;;;-3.44;86.33
61128;BME280;47013;42.664;23.242;2023-02-05T08:27:38;94430.97;;;-3.34;86.81
61128;BME280;47013;42.664;23.242;2023-02-05T08:30:06;94430.78;;;-3.37;86.22
61128;BME280;47013;42.664;23.242;2023-02-05T08:32:32;94430.03;;;-3.29;85.85
61128;BME280;47013;42.664;23.242;2023-02-05T08:34:58;94434.63;;;-3.12;85.79
61128;BME280;47013;42.664;23.242;2023-02-05T08:37:24;94432.66;;;-2.98;84.97
61128;BME280;47013;42.664;23.242;2023-02-05T08:39:49;94430.81;;;-2.80;85.08
61128;BME280;47013;42.664;23.242;2023-02-05T08:42:15;94431.31;;;-2.61;84.05
61128;BME280;47013;42.664;23.242;2023-02-05T08:44:40;94427.91;;;-2.53;82.60
61128;BME280;47013;42.664;23.242;2023-02-05T08:47:06;94437.28;;;-2.47;80.56
61128;BME280;47013;42.664;23.242;2023-02-05T08:49:31;94445.91;;;-2.32;79.99
61128;BME280;47013;42.664;23.242;2023-02-05T08:51:56;94436.22;;;-2.20;79.53
61128;BME280;47013;42.664;23.242;2023-02-05T08:54:23;94437.78;;;-2.27;77.54
61128;BME280;47013;42.664;23.242;2023-02-05T08:56:49;94429.78;;;-2.36;77.66
61128;BME280;47013;42.664;23.242;2023-02-05T08:59:15;94444.81;;;-2.31;75.53
61128;BME280;47013;42.664;23.242;2023-02-05T09:01:41;94447.47;;;-2.31;74.44
61128;BME280;47013;42.664;23.242;2023-02-05T09:04:11;94459.94;;;-2.23;73.65
61128;BME280;47013;42.664;23.242;2023-02-05T09:06:38;94464.47;;;-2.41;72.20
61128;BME280;47013;42.664;23.242;2023-02-05T09:09:03;94464.31;;;-2.36;73.12
61128;BME280;47013;42.664;23.242;2023-02-05T09:11:28;94469.94;;;-2.29;72.98
61128;BME280;47013;42.664;23.242;2023-02-05T09:13:55;94456.81;;;-2.25;71.42
61128;BME280;47013;42.664;23.242;2023-02-05T09:16:21;94464.31;;;-2.36;69.35
61128;BME280;47013;42.664;23.242;2023-02-05T09:18:46;94479.34;;;-2.31;69.60
61128;BME280;47013;42.664;23.242;2023-02-05T09:21:12;94484.63;;;-2.23;74.71
61128;BME280;47013;42.664;23.242;2023-02-05T09:23:38;94466.06;;;-2.14;84.87
61128;BME280;47013;42.664;23.242;2023-02-05T09:26:03;94465.53;;;-1.38;98.64
61128;BME280;47013;42.664;23.242;2023-02-05T09:28:29;94465.00;;;-1.14;100.00
61128;BME280;47013;42.664;23.242;2023-02-05T09:30:54;94483.09;;;-1.55;76.93
61128;BME280;47013;42.664;23.242;2023-02-05T09:33:20;94483.41;;;-1.73;69.11
61128;BME280;47013;42.664;23.242;2023-02-05T09:35:45;94483.88;;;-1.89;69.01
61128;BME280;47013;42.664;23.242;2023-02-05T09:38:13;94496.22;;;-2.01;68.35
61128;BME280;47013;42.664;23.242;2023-02-05T09:40:43;94491.81;;;-2.41;68.81
61128;BME280;47013;42.664;23.242;2023-02-05T09:46:08;94495.72;;;-2.95;72.26
61128;BME280;47013;42.664;23.242;2023-02-05T09:51:16;94494.75;;;-2.99;69.09
61128;BME280;47013;42.664;23.242;2023-02-05T09:53:46;94487.59;;;-2.90;70.54
61128;BME280;47013;42.664;23.242;2023-02-05T09:56:13;94489.50;;;-2.82;70.06
61128;BME280;47013;42.664;23.242;2023-02-05T09:58:42;94476.88;;;-1.12;100.00
61128;BME280;47013;42.664;23.242;2023-02-05T10:01:27;94469.03;;;-1.81;100.00
61128;BME280;47013;42.664;23.242;2023-02-05T10:03:59;94486.69;;;-2.20;74.38
61128;BME280;47013;42.664;23.242;2023-02-05T10:20:06;94496.06;;;-2.79;68.41
61128;BME280;47013;42.664;23.242;2023-02-05T10:28:04;94496.69;;;-2.82;68.63
61128;BME280;47013;42.664;23.242;2023-02-05T10:36:11;94508.09;;;-2.82;67.74
61128;BME280;47013;42.664;23.242;2023-02-05T10:38:42;94505.75;;;-2.83;67.13
61128;BME280;47013;42.664;23.242;2023-02-05T10:41:13;94508.19;;;-2.95;66.61
61128;BME280;47013;42.664;23.242;2023-02-05T10:43:47;94496.41;;;-3.43;67.61
61128;BME280;47013;42.664;23.242;2023-02-05T10:46:15;94492.78;;;-3.16;70.94
61128;BME280;47013;42.664;23.242;2023-02-05T10:49:03;94496.41;;;-3.12;66.55
61128;BME280;47013;42.664;23.242;2023-02-05T10:51:41;94494.56;;;-3.11;66.00
61128;BME280;47013;42.664;23.242;2023-02-05T10:54:25;94496.63;;;-3.31;64.69
61128;BME280;47013;42.664;23.242;2023-02-05T10:56:52;94500.50;;;-3.37;63.95
61128;BME280;47013;42.664;23.242;2023-02-05T10:59:27;94494.13;;;-3.58;63.24
61128;BME280;47013;42.664;23.242;2023-02-05T11:01:55;94497.63;;;-3.49;64.22
61128;BME280;47013;42.664;23.242;2023-02-05T11:04:32;94497.09;;;-3.60;65.25
61128;BME280;47013;42.664;23.242;2023-02-05T11:07:00;94502.56;;;-3.56;65.34
61128;BME280;47013;42.664;23.242;2023-02-05T11:09:32;94514.72;;;-3.55;65.26
61128;BME280;47013;42.664;23.242;2023-02-05T11:12:05;94504.66;;;-3.44;66.24
61128;BME280;47013;42.664;23.242;2023-02-05T11:14:43;94504.56;;;-3.31;65.41
61128;BME280;47013;42.664;23.242;2023-02-05T11:17:21;94509.97;;;-3.44;65.10
61128;BME280;47013;42.664;23.242;2023-02-05T11:19:55;94507.75;;;-3.20;66.73
61128;BME280;47013;42.664;23.242;2023-02-05T11:22:26;94506.84;;;-3.15;65.61
61128;BME280;47013;42.664;23.242;2023-02-05T11:25:24;94497.41;;;-2.99;67.25
61128;BME280;47013;42.664;23.242;2023-02-05T11:27:54;94500.63;;;-2.71;67.57
61128;BME280;47013;42.664;23.242;2023-02-05T11:30:28;94507.72;;;-2.49;65.14
61128;BME280;47013;42.664;23.242;2023-02-05T11:32:56;94501.81;;;-2.38;65.49
61128;BME280;47013;42.664;23.242;2023-02-05T11:35:24;94504.31;;;-2.24;63.83
61128;BME280;47013;42.664;23.242;2023-02-05T11:38:05;94501.22;;;-2.17;62.15
61128;BME280;47013;42.664;23.242;2023-02-05T11:40:31;94502.63;;;-2.02;62.15
61128;BME280;47013;42.664;23.242;2023-02-05T11:43:04;94499.19;;;-2.03;61.06
61128;BME280;47013;42.664;23.242;2023-02-05T11:45:31;94500.47;;;-1.92;61.91
61128;BME280;47013;42.664;23.242;2023-02-05T11:48:04;94499.38;;;-2.08;60.77
61128;BME280;47013;42.664;23.242;2023-02-05T11:50:31;94497.44;;;-2.42;61.83
61128;BME280;47013;42.664;23.242;2023-02-05T11:53:12;94503.91;;;-2.65;62.12
61128;BME280;47013;42.664;23.242;2023-02-05T11:55:42;94497.13;;;-2.32;63.88
61128;BME280;47013;42.664;23.242;2023-02-05T11:58:25;94499.19;;;-2.03;63.47
61128;BME280;47013;42.664;23.242;2023-02-05T12:01:00;94495.91;;;-1.83;65.98
61128;BME280;47013;42.664;23.242;2023-02-05T12:03:28;94501.88;;;-1.68;65.16
61128;BME280;47013;42.664;23.242;2023-02-05T12:06:15;94499.81;;;-1.54;64.84
61128;BME280;47013;42.664;23.242;2023-02-05T12:08:46;94479.66;;;0.64;100.00
61128;BME280;47013;42.664;23.242;2023-02-05T12:23:23;94496.78;;;-0.42;64.72
61128;BME280;47013;42.664;23.242;2023-02-05T12:37:42;94503.84;;;-1.39;77.99
61128;BME280;47013;42.664;23.242;2023-02-05T12:43:09;94504.03;;;-1.62;68.83
61128;BME280;47013;42.664;23.242;2023-02-05T12:45:39;94511.69;;;-1.60;69.38
61128;BME280;47013;42.664;23.242;2023-02-05T12:48:27;94512.78;;;-1.70;71.18
61128;BME280;47013;42.664;23.242;2023-02-05T12:51:18;94509.03;;;-1.52;85.46
61128;BME280;47013;42.664;23.242;2023-02-05T12:57:07;94505.88;;;-1.36;74.56
61128;BME280;47013;42.664;23.242;2023-02-05T12:59:38;94504.66;;;-1.48;71.99
61128;BME280;47013;42.664;23.242;2023-02-05T13:05:31;94491.34;;;-1.39;72.01
61128;BME280;47013;42.664;23.242;2023-02-05T13:08:14;94499.78;;;-1.28;71.61
61128;BME280;47013;42.664;23.242;2023-02-05T13:10:50;94511.53;;;-1.38;70.76
61128;BME280;47013;42.664;23.242;2023-02-05T13:16:14;94506.84;;;-1.50;70.82
61128;BME280;47013;42.664;23.242;2023-02-05T13:18:44;94506.84;;;-1.58;71.17
61128;BME280;47013;42.664;23.242;2023-02-05T13:21:16;94512.66;;;-1.82;71.54
61128;BME280;47013;42.664;23.242;2023-02-05T13:24:28;94515.91;;;-2.02;72.42
61128;BME280;47013;42.664;23.242;2023-02-05T13:27:19;94509.03;;;-2.21;72.40
61128;BME280;47013;42.664;23.242;2023-02-05T13:30:07;94509.63;;;-2.32;72.63
61128;BME280;47013;42.664;23.242;2023-02-05T13:32:35;94515.19;;;-2.51;73.41
61128;BME280;47013;42.664;23.242;2023-02-05T13:35:02;94510.81;;;-2.56;73.55
61128;BME280;47013;42.664;23.242;2023-02-05T13:37:50;94515.66;;;-2.58;73.38
61128;BME280;47013;42.664;23.242;2023-02-05T13:43:15;94521.75;;;-2.57;76.62
61128;BME280;47013;42.664;23.242;2023-02-05T13:46:06;94521.41;;;-2.64;76.18
61128;BME280;47013;42.664;23.242;2023-02-05T13:51:41;94533.22;;;-2.79;76.43
61128;BME280;47013;42.664;23.242;2023-02-05T14:01:59;94524.63;;;-2.85;75.40
61128;BME280;47013;42.664;23.242;2023-02-05T14:04:30;94527.41;;;-2.90;76.12
61128;BME280;47013;42.664;23.242;2023-02-05T14:07:05;94526.09;;;-3.01;76.43
61128;BME280;47013;42.664;23.242;2023-02-05T14:09:42;94532.50;;;-3.02;75.81
61128;BME280;47013;42.664;23.242;2023-02-05T14:12:11;94527.81;;;-3.28;75.99
61128;BME280;47013;42.664;23.242;2023-02-05T14:14:40;94533.09;;;-3.36;75.79
61128;BME280;47013;42.664;23.242;2023-02-05T14:19:56;94535.38;;;-3.43;75.68
61128;BME280;47013;42.664;23.242;2023-02-05T14:22:40;94538.66;;;-3.46;75.46
61128;BME280;47013;42.664;23.242;2023-02-05T14:31:06;94544.84;;;-3.51;75.98
61128;BME280;47013;42.664;23.242;2023-02-05T14:33:42;94543.78;;;-3.50;75.98
61128;BME280;47013;42.664;23.242;2023-02-05T14:38:49;94541.53;;;-3.57;76.60
61128;BME280;47013;42.664;23.242;2023-02-05T14:41:24;94539.72;;;-3.47;76.70
61128;BME280;47013;42.664;23.242;2023-02-05T14:43:57;94549.66;;;-3.53;77.09
61128;BME280;47013;42.664;23.242;2023-02-05T14:47:01;94548.53;;;-3.61;77.43
61128;BME280;47013;42.664;23.242;2023-02-05T14:52:20;94543.09;;;-3.56;78.00
61128;BME280;47013;42.664;23.242;2023-02-05T14:54:47;94551.81;;;-3.55;78.43